createdAt,value
2023-02-03T00:02:10.520Z,0.96
2023-02-03T00:04:38.575Z,1.03
2023-02-03T00:07:06.680Z,1.04
2023-02-03T00:09:34.796Z,1.04
2023-02-03T00:12:02.842Z,1.06
2023-02-03T00:14:30.818Z,1.05
2023-02-03T00:16:58.782Z,1.04
2023-02-03T00:19:26.744Z,1.02
2023-02-03T00:21:54.737Z,0.97
2023-02-03T00:24:24.102Z,0.90
2023-02-03T00:26:52.078Z,0.85
2023-02-03T00:29:24.896Z,0.80
2023-02-03T00:31:54.122Z,0.79
2023-02-03T00:34:22.513Z,0.80
2023-02-03T00:36:50.615Z,0.80
2023-02-03T00:39:18.648Z,0.80
2023-02-03T00:41:47.979Z,0.82
2023-02-03T00:44:16.027Z,0.82
2023-02-03T00:46:44.159Z,0.82
2023-02-03T00:49:12.177Z,0.83
2023-02-03T00:51:40.162Z,0.82
2023-02-03T00:54:08.162Z,0.76
2023-02-03T00:56:36.334Z,0.71
2023-02-03T00:59:04.294Z,0.63
2023-02-03T01:01:33.202Z,0.57
2023-02-03T01:04:01.486Z,0.53
2023-02-03T01:06:29.816Z,0.52
2023-02-03T01:08:57.835Z,0.49
2023-02-03T01:11:30.315Z,0.45
2023-02-03T01:14:01.699Z,0.39
2023-02-03T01:16:31.023Z,0.35
2023-02-03T01:18:59.393Z,0.29
2023-02-03T01:21:28.887Z,0.24
2023-02-03T01:23:57.008Z,0.16
2023-02-03T01:26:25.126Z,0.10
2023-02-03T01:28:54.251Z,-0.00
2023-02-03T01:31:24.568Z,-0.09
2023-02-03T01:33:54.305Z,-0.17
2023-02-03T01:36:23.850Z,-0.22
2023-02-03T01:38:52.275Z,-0.30
2023-02-03T01:41:24.276Z,-0.38
2023-02-03T01:43:53.561Z,-0.43
2023-02-03T01:46:27.783Z,-0.42
2023-02-03T01:49:08.397Z,-0.40
2023-02-03T01:51:38.540Z,-0.37
2023-02-03T01:54:09.800Z,-0.36
2023-02-03T01:56:39.389Z,-0.34
2023-02-03T01:59:08.198Z,-0.37
2023-02-03T02:01:37.467Z,-0.39
2023-02-03T02:04:06.418Z,-0.42
2023-02-03T02:06:34.522Z,-0.48
2023-02-03T02:09:02.535Z,-0.53
2023-02-03T02:11:30.565Z,-0.55
2023-02-03T02:14:00.412Z,-0.60
2023-02-03T02:16:46.587Z,-0.64
2023-02-03T02:19:20.888Z,-0.69
2023-02-03T02:21:55.995Z,-0.75
2023-02-03T02:24:27.082Z,-0.77
2023-02-03T02:27:00.342Z,-0.79
2023-02-03T02:29:34.635Z,-0.81
2023-02-03T02:32:15.447Z,-0.83
2023-02-03T02:35:03.342Z,-0.86
2023-02-03T02:37:31.436Z,-0.94
2023-02-03T02:40:06.494Z,-0.91
2023-02-03T02:42:38.188Z,-0.86
2023-02-03T02:45:17.715Z,-0.78
2023-02-03T02:47:47.309Z,-0.66
2023-02-03T02:50:22.834Z,-0.58
2023-02-03T02:52:53.012Z,-0.53
2023-02-03T02:55:27.096Z,-0.47
2023-02-03T02:57:58.037Z,-0.41
2023-02-03T03:00:30.390Z,-0.37
2023-02-03T03:03:07.045Z,-0.32
2023-02-03T03:05:35.168Z,-0.29
2023-02-03T03:08:03.903Z,-0.27
2023-02-03T03:10:33.043Z,-0.25
2023-02-03T03:13:04.910Z,-0.26
2023-02-03T03:15:34.595Z,-0.25
2023-02-03T03:18:09.831Z,-0.22
2023-02-03T03:20:43.011Z,-0.22
2023-02-03T03:23:32.117Z,-0.19
2023-02-03T03:26:08.606Z,-0.15
2023-02-03T03:28:46.958Z,-0.12
2023-02-03T03:31:16.463Z,-0.06
2023-02-03T03:33:44.899Z,-0.00
2023-02-03T03:36:19.834Z,0.07
2023-02-03T03:38:56.192Z,0.14
2023-02-03T03:41:31.517Z,0.14
2023-02-03T03:44:02.623Z,0.16
2023-02-03T03:46:35.629Z,0.17
2023-02-03T03:49:05.344Z,0.18
2023-02-03T03:51:52.074Z,0.16
2023-02-03T03:54:22.339Z,0.14
2023-02-03T03:57:10.683Z,0.09
2023-02-03T03:59:39.963Z,0.03
2023-02-03T04:02:08.165Z,-0.03
2023-02-03T04:04:37.811Z,-0.03
2023-02-03T04:07:05.882Z,-0.03
2023-02-03T04:09:36.738Z,-0.03
2023-02-03T04:12:06.425Z,-0.08
2023-02-03T04:14:35.526Z,-0.08
2023-02-03T04:17:03.957Z,-0.10
2023-02-03T04:19:32.119Z,-0.11
2023-02-03T04:22:00.120Z,-0.09
2023-02-03T04:24:28.181Z,-0.08
2023-02-03T04:26:56.327Z,-0.07
2023-02-03T04:29:24.415Z,-0.09
2023-02-03T04:31:52.540Z,-0.11
2023-02-03T04:34:20.562Z,-0.15
2023-02-03T04:36:48.488Z,-0.22
2023-02-03T04:39:16.549Z,-0.26
2023-02-03T04:41:44.665Z,-0.31
2023-02-03T04:44:12.576Z,-0.36
2023-02-03T04:46:40.499Z,-0.39
2023-02-03T04:49:11.796Z,-0.41
2023-02-03T04:51:39.987Z,-0.41
2023-02-03T04:54:08.074Z,-0.42
2023-02-03T04:56:36.160Z,-0.44
2023-02-03T04:59:04.211Z,-0.47
2023-02-03T05:01:32.291Z,-0.49
2023-02-03T05:04:00.379Z,-0.52
2023-02-03T05:06:30.109Z,-0.53
2023-02-03T05:08:58.093Z,-0.53
2023-02-03T05:11:26.269Z,-0.52
2023-02-03T05:13:54.400Z,-0.51
2023-02-03T05:16:22.479Z,-0.50
2023-02-03T05:18:50.475Z,-0.49
2023-02-03T05:21:19.069Z,-0.49
2023-02-03T05:23:47.492Z,-0.48
2023-02-03T05:26:15.578Z,-0.46
2023-02-03T05:28:43.636Z,-0.44
2023-02-03T05:31:11.587Z,-0.41
2023-02-03T05:33:39.840Z,-0.41
2023-02-03T05:36:08.206Z,-0.40
2023-02-03T05:38:36.318Z,-0.41
2023-02-03T05:41:23.163Z,-0.38
2023-02-03T05:43:52.365Z,-0.32
2023-02-03T05:46:20.542Z,-0.26
2023-02-03T05:48:48.638Z,-0.20
2023-02-03T05:51:16.802Z,-0.14
2023-02-03T05:53:44.862Z,-0.09
2023-02-03T05:56:12.987Z,-0.02
2023-02-03T05:58:40.951Z,0.03
2023-02-03T06:01:08.985Z,0.06
2023-02-03T06:03:37.852Z,0.08
2023-02-03T06:06:07.446Z,0.10
2023-02-03T06:08:35.651Z,0.10
2023-02-03T06:11:11.678Z,0.10
2023-02-03T06:13:42.852Z,0.09
2023-02-03T06:16:11.027Z,0.08
2023-02-03T06:18:42.314Z,0.06
2023-02-03T06:21:10.332Z,0.03
2023-02-03T06:23:38.331Z,0.02
2023-02-03T06:26:07.779Z,0.01
2023-02-03T06:28:38.372Z,0.02
2023-02-03T06:31:08.252Z,0.05
2023-02-03T06:33:36.769Z,0.11
2023-02-03T06:36:05.280Z,0.19
2023-02-03T06:38:35.212Z,0.29
2023-02-03T06:41:04.802Z,0.37
2023-02-03T06:43:35.638Z,0.45
2023-02-03T06:46:04.771Z,0.50
2023-02-03T06:48:33.965Z,0.54
2023-02-03T06:51:02.098Z,0.64
2023-02-03T06:53:30.390Z,0.71
2023-02-03T06:55:59.735Z,0.80
2023-02-03T06:58:28.366Z,0.83
2023-02-03T07:00:57.907Z,0.94
2023-02-03T07:03:26.078Z,1.01
2023-02-03T07:05:54.616Z,1.08
2023-02-03T07:08:22.736Z,1.14
2023-02-03T07:10:54.885Z,1.19
2023-02-03T07:13:27.728Z,1.25
2023-02-03T07:16:02.621Z,1.33
2023-02-03T07:18:46.850Z,1.38
2023-02-03T07:21:19.602Z,1.39
2023-02-03T07:23:48.821Z,1.38
2023-02-03T07:26:18.176Z,1.38
2023-02-03T07:28:46.575Z,1.41
2023-02-03T07:31:15.400Z,1.50
2023-02-03T07:33:44.106Z,1.68
2023-02-03T07:36:15.057Z,1.77
2023-02-03T07:38:46.242Z,1.88
2023-02-03T07:41:17.604Z,2.03
2023-02-03T07:43:46.362Z,2.48
2023-02-03T07:46:15.051Z,3.00
2023-02-03T07:48:43.159Z,3.38
2023-02-03T07:51:11.366Z,3.95
2023-02-03T07:53:40.700Z,4.88
2023-02-03T07:56:09.209Z,5.93
2023-02-03T07:58:38.860Z,6.88
2023-02-03T08:01:14.044Z,6.90
2023-02-03T08:03:42.616Z,6.73
2023-02-03T08:06:11.325Z,6.63
2023-02-03T08:08:40.096Z,6.37
2023-02-03T08:11:08.961Z,5.82
2023-02-03T08:13:37.215Z,5.36
2023-02-03T08:16:06.132Z,5.04
2023-02-03T08:18:38.955Z,4.81
2023-02-03T08:21:07.229Z,4.48
2023-02-03T08:23:35.723Z,4.31
2023-02-03T08:26:03.932Z,4.31
2023-02-03T08:28:32.239Z,4.22
2023-02-03T08:31:00.635Z,4.09
2023-02-03T08:33:29.305Z,4.01
2023-02-03T08:35:57.897Z,3.91
2023-02-03T08:38:25.989Z,3.91
2023-02-03T08:40:54.226Z,3.79
2023-02-03T08:43:25.842Z,3.72
2023-02-03T08:45:54.959Z,3.70
2023-02-03T08:48:36.170Z,3.75
2023-02-03T08:51:15.700Z,3.77
2023-02-03T08:53:45.273Z,3.98
2023-02-03T08:56:14.033Z,4.16
2023-02-03T08:58:42.178Z,4.53
2023-02-03T09:01:11.796Z,5.08
2023-02-03T09:03:39.978Z,5.36
2023-02-03T09:06:09.523Z,6.07
2023-02-03T09:08:38.193Z,7.30
2023-02-03T09:11:16.343Z,8.09
2023-02-03T09:13:46.261Z,8.96
2023-02-03T09:16:45.398Z,10.36
2023-02-03T09:19:13.552Z,11.80
2023-02-03T09:21:46.325Z,12.92
2023-02-03T09:24:16.168Z,13.75
2023-02-03T09:26:46.590Z,14.22
2023-02-03T09:29:15.087Z,14.61
2023-02-03T09:31:43.944Z,15.00
2023-02-03T09:34:12.329Z,15.38
2023-02-03T09:36:41.959Z,15.35
2023-02-03T09:39:11.301Z,15.19
2023-02-03T09:42:01.360Z,15.73
2023-02-03T09:44:37.402Z,16.89
2023-02-03T09:47:12.368Z,17.75
2023-02-03T09:50:00.547Z,18.51
2023-02-03T09:52:31.359Z,19.06
2023-02-03T09:55:18.190Z,19.61
2023-02-03T09:57:51.882Z,20.38
2023-02-03T10:00:22.079Z,20.87
2023-02-03T10:02:54.119Z,20.64
2023-02-03T10:05:37.659Z,20.84
2023-02-03T10:08:06.575Z,21.30
2023-02-03T10:10:49.475Z,21.80
2023-02-03T10:13:38.117Z,22.25
2023-02-03T10:16:06.248Z,23.18
2023-02-03T10:18:46.014Z,23.77
2023-02-03T10:21:18.995Z,24.11
2023-02-03T10:23:55.326Z,24.25
2023-02-03T10:26:26.280Z,24.19
2023-02-03T10:28:58.728Z,23.94
2023-02-03T10:31:28.852Z,24.04
2023-02-03T10:34:01.095Z,24.55
2023-02-03T10:36:49.549Z,24.54
2023-02-03T10:39:36.104Z,24.28
2023-02-03T10:42:05.447Z,24.41
2023-02-03T10:44:44.906Z,24.05
2023-02-03T10:47:39.378Z,23.90
2023-02-03T10:50:16.416Z,24.43
2023-02-03T10:52:45.139Z,24.44
2023-02-03T10:55:25.540Z,24.03
2023-02-03T10:57:54.451Z,23.81
2023-02-03T11:00:34.100Z,23.27
2023-02-03T11:03:10.708Z,23.13
2023-02-03T11:05:38.899Z,22.21
2023-02-03T11:08:19.299Z,22.18
2023-02-03T11:10:47.684Z,22.43
2023-02-03T11:13:26.107Z,22.38
2023-02-03T11:15:59.831Z,21.86
2023-02-03T11:18:40.133Z,20.95
2023-02-03T11:21:28.843Z,20.85
2023-02-03T11:24:02.177Z,20.43
2023-02-03T11:26:36.170Z,20.51
2023-02-03T11:29:06.415Z,20.84
2023-02-03T11:31:36.402Z,20.55
2023-02-03T11:34:07.674Z,20.09
2023-02-03T11:36:36.185Z,19.90
2023-02-03T11:39:35.257Z,19.69
2023-02-03T11:42:21.292Z,19.90
2023-02-03T11:44:49.470Z,19.67
2023-02-03T11:47:18.685Z,18.84
2023-02-03T11:49:49.772Z,18.37
2023-02-03T11:52:53.730Z,18.11
2023-02-03T11:55:34.870Z,17.74
2023-02-03T11:58:06.020Z,17.10
2023-02-03T12:00:41.965Z,16.55
2023-02-03T12:03:29.135Z,15.34
2023-02-03T12:06:12.252Z,14.53
2023-02-03T12:08:43.407Z,13.43
2023-02-03T12:11:37.772Z,12.90
2023-02-03T12:14:11.890Z,12.49
2023-02-03T12:16:49.329Z,12.12
2023-02-03T12:19:20.074Z,11.59
2023-02-03T12:22:00.609Z,11.23
2023-02-03T12:24:39.139Z,10.80
2023-02-03T12:27:16.528Z,10.31
2023-02-03T12:30:09.502Z,9.78
2023-02-03T12:32:45.122Z,9.49
2023-02-03T12:35:16.155Z,9.22
2023-02-03T12:37:56.950Z,9.07
2023-02-03T12:40:24.970Z,8.96
2023-02-03T12:42:58.824Z,8.86
2023-02-03T12:45:31.440Z,8.74
2023-02-03T12:48:06.445Z,8.53
2023-02-03T12:50:37.866Z,8.26
2023-02-03T12:53:06.273Z,8.09
2023-02-03T12:55:36.583Z,7.84
2023-02-03T12:58:07.378Z,7.59
2023-02-03T13:00:54.541Z,7.31
2023-02-03T13:03:35.292Z,7.00
2023-02-03T13:06:06.191Z,6.65
2023-02-03T13:08:47.762Z,6.40
2023-02-03T13:11:36.231Z,6.17
2023-02-03T13:14:10.957Z,6.01
2023-02-03T13:16:43.697Z,5.90
2023-02-03T13:19:15.353Z,5.69
2023-02-03T13:21:43.434Z,5.61
2023-02-03T13:24:11.649Z,5.61
2023-02-03T13:26:43.034Z,5.54
2023-02-03T13:29:26.475Z,5.50
2023-02-03T13:32:13.441Z,5.39
2023-02-03T13:35:24.540Z,5.37
2023-02-03T13:38:29.287Z,5.32
2023-02-03T13:41:05.218Z,5.27
2023-02-03T13:43:39.033Z,5.24
2023-02-03T13:46:19.104Z,5.14
2023-02-03T13:48:47.502Z,5.05
2023-02-03T13:51:20.701Z,5.01
2023-02-03T13:53:49.880Z,5.00
2023-02-03T13:56:18.007Z,4.91
2023-02-03T13:58:59.018Z,4.82
2023-02-03T14:01:30.258Z,4.70
2023-02-03T14:03:58.510Z,4.57
2023-02-03T14:06:35.791Z,4.47
2023-02-03T14:09:19.469Z,4.46
2023-02-03T14:11:50.080Z,4.43
2023-02-03T14:14:20.854Z,4.40
2023-02-03T14:16:54.277Z,4.40
2023-02-03T14:19:22.963Z,4.34
2023-02-03T14:22:03.198Z,4.27
2023-02-03T14:24:33.266Z,4.23
2023-02-03T14:27:03.697Z,4.09
2023-02-03T14:29:33.562Z,3.80
2023-02-03T14:32:02.906Z,3.70
2023-02-03T14:34:50.237Z,3.76
2023-02-03T14:37:26.716Z,3.78
2023-02-03T14:39:57.526Z,3.51
2023-02-03T14:42:45.713Z,3.35
2023-02-03T14:45:36.903Z,3.16
2023-02-03T14:48:25.223Z,3.07
2023-02-03T14:50:59.707Z,2.91
2023-02-03T14:53:27.799Z,2.86
2023-02-03T14:56:14.713Z,2.74
2023-02-03T14:58:45.485Z,2.59
2023-02-03T15:01:29.253Z,2.49
2023-02-03T15:04:21.137Z,2.41
2023-02-03T15:06:50.362Z,2.42
2023-02-03T15:09:40.208Z,2.55
2023-02-03T15:12:24.234Z,2.68
2023-02-03T15:15:12.434Z,2.72
2023-02-03T15:17:40.660Z,2.67
2023-02-03T15:20:17.721Z,2.59
2023-02-03T15:22:45.998Z,2.60
2023-02-03T15:25:18.218Z,2.57
2023-02-03T15:27:46.306Z,2.57
2023-02-03T15:30:15.846Z,2.61
2023-02-03T15:32:50.321Z,2.64
2023-02-03T15:35:19.777Z,2.57
2023-02-03T15:38:00.004Z,2.42
2023-02-03T15:40:34.484Z,2.35
2023-02-03T15:43:07.283Z,2.31
2023-02-03T15:45:40.157Z,2.25
2023-02-03T15:48:25.754Z,2.14
2023-02-03T15:50:57.217Z,2.13
2023-02-03T15:53:41.052Z,2.15
2023-02-03T15:56:27.205Z,2.05
2023-02-03T15:58:55.576Z,2.06
2023-02-03T16:01:26.249Z,2.08
2023-02-03T16:03:55.700Z,2.06
2023-02-03T16:06:35.988Z,2.04
2023-02-03T16:09:07.051Z,1.88
2023-02-03T16:11:36.075Z,1.69
2023-02-03T16:14:06.867Z,1.60
2023-02-03T16:17:04.422Z,1.52
2023-02-03T16:19:38.513Z,1.49
2023-02-03T16:22:26.550Z,1.48
2023-02-03T16:24:54.933Z,1.49
2023-02-03T16:27:25.817Z,1.44
2023-02-03T16:30:13.791Z,1.39
2023-02-03T16:33:00.500Z,1.35
2023-02-03T16:35:47.715Z,1.32
2023-02-03T16:38:35.727Z,1.29
2023-02-03T16:41:23.963Z,1.28
2023-02-03T16:44:10.468Z,1.29
2023-02-03T16:46:57.424Z,1.29
2023-02-03T16:49:44.247Z,1.37
2023-02-03T16:52:12.337Z,1.40
2023-02-03T16:54:40.359Z,1.41
2023-02-03T16:57:08.789Z,1.41
2023-02-03T16:59:36.765Z,1.42
2023-02-03T17:02:04.816Z,1.46
2023-02-03T17:04:33.112Z,1.52
2023-02-03T17:07:03.101Z,1.52
2023-02-03T17:09:35.211Z,1.51
2023-02-03T17:12:03.459Z,1.48
2023-02-03T17:14:31.513Z,1.46
2023-02-03T17:16:59.533Z,1.44
2023-02-03T17:19:27.641Z,1.43
2023-02-03T17:21:56.159Z,1.43
2023-02-03T17:24:24.638Z,1.37
2023-02-03T17:26:55.559Z,1.34
2023-02-03T17:29:24.448Z,1.33
2023-02-03T17:31:52.451Z,1.33
2023-02-03T17:34:20.564Z,1.35
2023-02-03T17:36:48.757Z,1.38
2023-02-03T17:55:33.377Z,1.49
2023-02-03T17:58:02.087Z,1.43
2023-02-03T18:00:30.661Z,1.39
2023-02-03T18:02:58.991Z,1.35
2023-02-03T18:05:28.885Z,1.28
2023-02-03T18:07:56.927Z,1.24
2023-02-03T18:10:25.067Z,1.21
2023-02-03T18:12:53.150Z,1.18
2023-02-03T18:15:21.415Z,1.12
2023-02-03T18:17:49.471Z,1.08
2023-02-03T18:20:17.546Z,1.02
2023-02-03T18:22:45.735Z,1.02
2023-02-03T18:25:17.378Z,1.06
2023-02-03T18:27:45.562Z,1.13
2023-02-03T18:30:15.135Z,1.19
2023-02-03T18:32:44.301Z,1.24
2023-02-03T18:35:16.886Z,1.29
2023-02-03T18:37:45.177Z,1.36
2023-02-03T18:40:13.411Z,1.37
2023-02-03T18:42:41.544Z,1.36
2023-02-03T18:45:10.570Z,1.31
2023-02-03T18:47:38.742Z,1.27
2023-02-03T18:50:07.034Z,1.18
2023-02-03T18:52:35.230Z,1.04
2023-02-03T18:55:04.204Z,1.01
2023-02-03T18:57:32.306Z,0.96
2023-02-03T19:00:00.369Z,1.01
2023-02-03T19:02:28.526Z,0.94
2023-02-03T19:04:56.659Z,0.95
2023-02-03T19:07:24.715Z,0.94
2023-02-03T19:09:52.739Z,0.92
2023-02-03T19:12:20.822Z,0.93
2023-02-03T19:14:48.816Z,0.99
2023-02-03T19:17:17.040Z,1.06
2023-02-03T19:19:45.167Z,1.10
2023-02-03T19:22:13.093Z,1.13
2023-02-03T19:24:41.195Z,1.17
2023-02-03T19:27:09.799Z,1.17
2023-02-03T19:29:39.903Z,1.17
2023-02-03T19:32:09.859Z,1.16
2023-02-03T19:34:38.404Z,1.16
2023-02-03T19:37:06.768Z,1.18
2023-02-03T19:39:35.158Z,1.16
2023-02-03T19:42:03.738Z,1.16
2023-02-03T19:44:31.767Z,1.17
2023-02-03T19:46:59.675Z,1.17
2023-02-03T19:49:28.833Z,1.18
2023-02-03T19:51:56.983Z,1.20
2023-02-03T19:54:25.338Z,1.14
2023-02-03T19:56:55.595Z,1.16
2023-02-03T19:59:23.651Z,1.26
2023-02-03T20:01:51.681Z,1.34
2023-02-03T20:04:19.842Z,1.40
2023-02-03T20:06:48.620Z,1.41
2023-02-03T20:09:16.708Z,1.37
2023-02-03T20:11:44.790Z,1.39
2023-02-03T20:14:13.858Z,1.37
2023-02-03T20:16:42.980Z,1.35
2023-02-03T20:19:11.613Z,1.32
2023-02-03T20:21:39.750Z,1.30
2023-02-03T20:24:07.816Z,1.35
2023-02-03T20:26:36.024Z,1.40
2023-02-03T20:29:04.041Z,1.38
2023-02-03T20:31:32.291Z,1.39
2023-02-03T20:34:00.342Z,1.40
2023-02-03T20:36:28.417Z,1.43
2023-02-03T20:38:56.635Z,1.39
2023-02-03T20:41:24.970Z,1.34
2023-02-03T20:43:53.061Z,1.34
2023-02-03T20:46:21.336Z,1.32
2023-02-03T20:48:49.391Z,1.33
2023-02-03T20:51:18.883Z,1.37
2023-02-03T20:53:48.144Z,1.40
2023-02-03T20:56:18.340Z,1.40
2023-02-03T20:58:46.314Z,1.42
2023-02-03T21:01:18.540Z,1.42
2023-02-03T21:04:05.901Z,1.43
2023-02-03T21:06:34.638Z,1.43
2023-02-03T21:09:29.184Z,1.47
2023-02-03T21:11:57.303Z,1.54
2023-02-03T21:14:35.470Z,1.62
2023-02-03T21:17:03.416Z,1.72
2023-02-03T21:19:32.973Z,1.80
2023-02-03T21:22:07.412Z,1.84
2023-02-03T21:24:36.911Z,1.86
2023-02-03T21:27:18.711Z,1.89
2023-02-03T21:29:46.725Z,1.92
2023-02-03T21:32:15.071Z,1.93
2023-02-03T21:34:43.868Z,1.92
2023-02-03T21:37:31.760Z,1.90
2023-02-03T21:39:59.852Z,1.81
2023-02-03T21:42:43.014Z,1.79
2023-02-03T21:45:17.650Z,1.81
2023-02-03T21:47:47.754Z,1.79
2023-02-03T21:50:35.718Z,1.73
2023-02-03T21:53:12.915Z,1.71
2023-02-03T21:55:42.223Z,1.70
2023-02-03T21:58:23.507Z,1.69
2023-02-03T22:00:52.883Z,1.66
2023-02-03T22:03:20.912Z,1.65
2023-02-03T22:05:49.072Z,1.66
2023-02-03T22:08:20.714Z,1.68
2023-02-03T22:10:49.286Z,1.73
2023-02-03T22:13:17.361Z,1.78
2023-02-03T22:15:45.509Z,1.82
2023-02-03T22:18:13.539Z,1.82
2023-02-03T22:20:41.532Z,1.83
2023-02-03T22:23:09.476Z,1.85
2023-02-03T22:25:38.010Z,1.88
2023-02-03T22:28:06.489Z,1.87
2023-02-03T22:30:34.569Z,1.87
2023-02-03T22:33:02.786Z,1.84
2023-02-03T22:35:30.845Z,1.80
2023-02-03T22:37:58.882Z,1.77
2023-02-03T22:40:26.948Z,1.74
2023-02-03T22:42:55.035Z,1.71
2023-02-03T22:45:23.353Z,1.65
2023-02-03T22:47:51.432Z,1.65
2023-02-03T22:50:27.106Z,1.69
2023-02-03T22:52:59.224Z,1.73
2023-02-03T22:55:27.552Z,1.76
2023-02-03T22:57:56.513Z,1.79
2023-02-03T23:00:25.567Z,1.81
2023-02-03T23:02:53.734Z,1.86
2023-02-03T23:05:22.300Z,1.90
2023-02-03T23:07:50.369Z,1.89
2023-02-03T23:10:20.567Z,1.89
2023-02-03T23:12:48.935Z,1.87
2023-02-03T23:15:18.372Z,1.86
2023-02-03T23:17:46.581Z,1.82
2023-02-03T23:20:15.371Z,1.79
2023-02-03T23:22:43.902Z,1.74
2023-02-03T23:25:12.510Z,1.74
2023-02-03T23:27:40.580Z,1.75
2023-02-03T23:30:09.583Z,1.74
2023-02-03T23:32:37.620Z,1.76
2023-02-03T23:35:24.695Z,1.80
2023-02-03T23:37:52.652Z,1.87
2023-02-03T23:40:21.522Z,1.91
2023-02-03T23:42:49.867Z,1.94
2023-02-03T23:45:17.899Z,1.96
2023-02-03T23:47:46.636Z,1.93
2023-02-03T23:50:16.315Z,1.93
2023-02-03T23:52:44.505Z,1.93
2023-02-03T23:55:14.181Z,1.91
2023-02-03T23:57:45.213Z,1.90
